Авиационная погода в Анапе

Регион: 
Погода METAR: 
URKA 221800Z 10007MPS CAVOK M01/M03 Q1012 R04/150065 TEMPO 06012G17MPS 1000 SHSN SCT004 BKN016CB RMK QFE755/1007
Время наблюдения
2022-01-22T18:00:00Z
Температура C
-1.0
Точка росы
-3.0
Направление ветра
100
Скорость ветра (узлы)
14
Метео видимость
6.21
Облачность
CAVOK
Нижняя граница облачности (футы)
Явления погоды
Условия полета
VFR
Аэропорт подробнее: